Time;durP1;ratioP1;P1;durP2;ratioP2;P2;SDS_P1;SDS_P2;PMS_P1;PMS_P2;Temp;Humidity;BMP_temperature;BMP_pressure;BME280_temperature;BME280_humidity;BME280_pressure;Samples;Min_cycle;Max_cycle;Signal;HPM_P1;HPM_P2
2020/12/12 00:00:16;;;;;;;6.97;5.93;;;;;;;6.10;79.71;96616.06;5092082;28;20098;-70
2020/12/12 00:02:42;;;;;;;8.40;6.95;;;;;;;6.13;79.17;96610.38;5091078;28;20052;-68
2020/12/12 00:05:09;;;;;;;7.82;5.40;;;;;;;6.02;79.70;96618.97;5095967;28;20497;-71
2020/12/12 00:07:36;;;;;;;7.60;6.10;;;;;;;6.11;79.83;96612.41;5095018;28;20048;-69
2020/12/12 00:10:03;;;;;;;11.35;8.30;;;;;;;6.21;79.74;96609.28;5096061;28;20036;-69
2020/12/12 00:12:30;;;;;;;12.15;9.38;;;;;;;6.24;79.67;96614.09;5096334;28;20042;-69
2020/12/12 00:14:58;;;;;;;8.70;7.75;;;;;;;6.28;79.50;96611.81;5095647;28;20052;-68
2020/12/12 00:17:24;;;;;;;16.42;7.85;;;;;;;6.28;78.95;96602.13;5095914;28;20044;-68
2020/12/12 00:19:51;;;;;;;8.80;7.07;;;;;;;6.25;79.16;96605.22;5096128;28;20596;-68
2020/12/12 00:22:18;;;;;;;9.50;7.53;;;;;;;6.30;78.67;96602.72;5096510;28;20040;-69
2020/12/12 00:24:44;;;;;;;6.95;6.05;;;;;;;6.25;79.14;96605.22;5111330;28;20050;-70
2020/12/12 00:27:11;;;;;;;7.22;6.50;;;;;;;6.32;79.31;96602.50;5114900;28;20103;-70
2020/12/12 00:29:38;;;;;;;9.60;6.72;;;;;;;6.29;78.91;96603.75;5105450;28;20052;-69
2020/12/12 00:32:06;;;;;;;10.18;6.80;;;;;;;6.33;79.23;96597.03;5096011;28;20040;-68
2020/12/12 00:34:33;;;;;;;7.50;6.53;;;;;;;6.35;79.06;96599.44;5095345;28;20493;-68
2020/12/12 00:36:59;;;;;;;7.43;6.63;;;;;;;6.37;79.07;96600.84;5095733;28;20044;-68
2020/12/12 00:39:26;;;;;;;7.68;6.57;;;;;;;6.41;78.89;96601.22;5095441;28;20048;-70
2020/12/12 00:41:53;;;;;;;7.32;6.63;;;;;;;6.43;78.78;96597.31;5095514;28;20048;-69
2020/12/12 00:44:20;;;;;;;8.77;7.68;;;;;;;6.41;78.46;96603.81;5094968;28;20036;-71
2020/12/12 00:46:46;;;;;;;8.10;7.05;;;;;;;6.38;78.54;96602.44;5095441;28;20067;-69
2020/12/12 00:49:15;;;;;;;9.95;7.63;;;;;;;6.38;78.67;96609.50;5094148;28;20046;-69
2020/12/12 00:51:41;;;;;;;10.73;7.75;;;;;;;6.39;78.80;96603.22;5095217;28;20074;-68
2020/12/12 00:54:08;;;;;;;8.75;7.80;;;;;;;6.38;78.58;96604.25;5094836;28;20040;-68
2020/12/12 00:56:35;;;;;;;8.23;6.55;;;;;;;6.34;78.91;96605.72;5095174;28;20406;-69
2020/12/12 00:59:02;;;;;;;7.78;6.97;;;;;;;6.37;78.65;96607.91;5095009;28;20051;-68
2020/12/12 01:01:28;;;;;;;8.57;7.53;;;;;;;6.31;78.59;96608.78;5095096;28;20235;-69
2020/12/12 01:03:55;;;;;;;9.48;7.78;;;;;;;6.29;79.07;96613.44;5094917;28;20055;-69
2020/12/12 01:06:23;;;;;;;9.90;7.80;;;;;;;6.31;79.13;96606.94;5094973;28;20040;-68
2020/12/12 01:08:49;;;;;;;10.77;8.50;;;;;;;6.30;79.17;96615.84;5093622;28;20052;-68
2020/12/12 01:11:18;;;;;;;10.52;8.32;;;;;;;6.31;79.17;96614.81;5093556;28;20054;-68
2020/12/12 01:13:45;;;;;;;9.70;8.05;;;;;;;6.34;78.96;96617.00;5094450;28;20486;-69
2020/12/12 01:16:14;;;;;;;10.05;8.90;;;;;;;6.30;78.85;96612.44;5093885;28;20387;-71
2020/12/12 01:18:42;;;;;;;10.88;8.00;;;;;;;6.23;79.24;96616.94;5094646;28;20401;-69
2020/12/12 01:21:14;;;;;;;11.18;9.23;;;;;;;6.25;79.23;96614.91;5094696;28;20409;-71
2020/12/12 01:23:42;;;;;;;9.48;7.97;;;;;;;6.25;79.48;96620.97;5094375;28;20044;-68
2020/12/12 01:26:09;;;;;;;10.10;8.07;;;;;;;6.25;79.40;96622.78;5094566;28;20545;-68
2020/12/12 01:28:36;;;;;;;11.60;8.25;;;;;;;6.25;79.35;96626.19;5094811;28;20371;-69
2020/12/12 01:31:03;;;;;;;9.52;8.40;;;;;;;6.26;79.31;96622.56;5094454;28;20646;-68
2020/12/12 01:33:30;;;;;;;9.65;7.78;;;;;;;6.19;79.48;96621.81;5094193;28;20044;-68
2020/12/12 01:35:56;;;;;;;12.48;9.10;;;;;;;6.19;79.85;96625.22;5094176;28;20058;-69
2020/12/12 01:38:23;;;;;;;11.27;8.82;;;;;;;6.23;79.70;96624.81;5094069;28;20051;-71
2020/12/12 01:40:55;;;;;;;8.63;7.38;;;;;;;6.18;79.92;96628.88;5094236;28;20048;-69
2020/12/12 01:43:22;;;;;;;8.70;7.43;;;;;;;6.25;80.31;96628.81;5094027;28;20036;-69
2020/12/12 01:45:48;;;;;;;7.88;6.93;;;;;;;6.29;79.97;96624.75;5092826;28;20052;-69
2020/12/12 01:48:16;;;;;;;9.38;7.78;;;;;;;6.28;79.67;96620.50;5094139;28;20050;-70
2020/12/12 01:50:43;;;;;;;10.35;8.35;;;;;;;6.24;79.76;96627.19;5094061;28;20116;-69
2020/12/12 01:53:11;;;;;;;9.15;7.20;;;;;;;6.20;79.97;96623.41;5093840;28;20076;-68
2020/12/12 01:55:37;;;;;;;8.13;7.03;;;;;;;6.19;80.39;96621.81;5093685;28;20036;-71
2020/12/12 01:58:05;;;;;;;7.63;6.35;;;;;;;6.25;80.17;96620.16;5094082;28;20047;-69
2020/12/12 02:00:32;;;;;;;6.85;6.18;;;;;;;6.28;80.13;96627.56;5092613;28;20053;-68
2020/12/12 02:03:02;;;;;;;6.70;5.97;;;;;;;6.33;80.05;96623.28;5093878;28;20040;-68
2020/12/12 02:05:38;;;;;;;7.03;6.05;;;;;;;6.37;79.89;96627.09;5093519;28;20193;-68
2020/12/12 02:08:08;;;;;;;7.30;6.40;;;;;;;6.39;79.83;96632.91;5093795;28;20059;-68
2020/12/12 02:10:36;;;;;;;8.82;6.72;;;;;;;6.40;79.95;96629.25;5093711;28;20051;-68
2020/12/12 02:13:03;;;;;;;8.15;6.30;;;;;;;6.37;79.57;96631.53;5092499;28;20052;-68
2020/12/12 02:15:31;;;;;;;7.75;6.20;;;;;;;6.36;80.01;96632.53;5093310;28;20044;-70
2020/12/12 02:17:59;;;;;;;7.55;6.75;;;;;;;6.39;80.05;96630.28;5093617;28;20409;-70
2020/12/12 02:20:25;;;;;;;9.25;6.35;;;;;;;6.41;80.19;96622.19;5093624;28;20055;-70
2020/12/12 02:22:53;;;;;;;7.55;6.07;;;;;;;6.40;80.01;96631.88;5093443;28;20105;-70
2020/12/12 02:25:20;;;;;;;7.28;6.45;;;;;;;6.41;79.71;96638.75;5093180;28;20043;-70
2020/12/12 02:27:49;;;;;;;8.02;6.95;;;;;;;6.42;79.86;96629.84;5093424;28;20059;-70
2020/12/12 02:30:15;;;;;;;7.43;6.18;;;;;;;6.44;80.06;96634.88;5091963;28;20493;-70
2020/12/12 02:32:42;;;;;;;6.28;5.63;;;;;;;6.45;80.13;96632.03;5093154;28;20043;-70
2020/12/12 02:35:09;;;;;;;7.93;6.45;;;;;;;6.49;79.98;96623.69;5091628;28;20421;-70
2020/12/12 02:37:36;;;;;;;8.95;6.57;;;;;;;6.52;79.86;96628.53;5091966;28;20051;-70
2020/12/12 02:40:04;;;;;;;9.10;6.45;;;;;;;6.53;79.77;96625.69;5093137;28;20413;-70
2020/12/12 02:42:31;;;;;;;7.22;6.03;;;;;;;6.54;79.73;96627.28;5091816;28;20055;-69
2020/12/12 02:44:58;;;;;;;8.07;6.30;;;;;;;6.56;79.43;96616.56;5092662;28;20040;-69
2020/12/12 02:47:24;;;;;;;8.63;6.70;;;;;;;6.53;79.77;96623.06;5092956;28;20052;-70
2020/12/12 02:50:03;;;;;;;6.85;6.15;;;;;;;6.53;79.74;96624.88;5092927;28;20039;-70
2020/12/12 02:52:30;;;;;;;8.65;6.38;;;;;;;6.56;80.16;96622.59;5093005;28;20052;-70
2020/12/12 02:54:57;;;;;;;8.07;6.28;;;;;;;6.61;79.90;96622.78;5092536;28;20055;-70
2020/12/12 02:57:24;;;;;;;7.63;6.45;;;;;;;6.67;79.78;96626.31;5092873;28;20047;-69
2020/12/12 02:59:51;;;;;;;6.90;6.18;;;;;;;6.68;79.68;96623.47;5092646;28;20051;-69
2020/12/12 03:02:18;;;;;;;8.13;6.65;;;;;;;6.67;79.72;96629.75;5091686;28;20498;-70
2020/12/12 03:04:44;;;;;;;8.15;6.45;;;;;;;6.69;79.52;96625.09;5092431;28;20044;-70
2020/12/12 03:07:11;;;;;;;6.43;5.72;;;;;;;6.68;79.76;96622.69;5091420;28;20055;-69
2020/12/12 03:09:38;;;;;;;6.93;6.22;;;;;;;6.73;79.35;96633.31;5091559;28;20047;-69
2020/12/12 03:12:04;;;;;;;7.00;6.03;;;;;;;6.70;79.32;96629.31;5092574;28;20048;-69
2020/12/12 03:14:32;;;;;;;10.40;6.57;;;;;;;6.68;79.22;96627.91;5091007;28;20418;-70
2020/12/12 03:16:58;;;;;;;7.03;5.75;;;;;;;6.66;79.21;96628.16;5091359;28;20052;-69
2020/12/12 03:19:25;;;;;;;6.57;5.88;;;;;;;6.74;79.45;96627.06;5092506;28;20036;-68
2020/12/12 03:21:52;;;;;;;7.32;5.60;;;;;;;6.74;78.64;96624.44;5092367;28;20055;-69
2020/12/12 03:24:18;;;;;;;7.25;6.55;;;;;;;6.67;78.73;96628.97;5092085;28;20048;-70
2020/12/12 03:26:45;;;;;;;7.43;6.63;;;;;;;6.62;78.71;96632.25;5092374;28;20320;-69
2020/12/12 03:29:12;;;;;;;6.97;6.28;;;;;;;6.59;78.74;96630.06;5092254;28;20039;-69
2020/12/12 03:31:39;;;;;;;7.75;5.78;;;;;;;6.58;78.95;96628.47;5092373;28;20070;-69
2020/12/12 03:34:06;;;;;;;8.20;6.75;;;;;;;6.59;79.14;96637.13;5092092;28;20054;-70
2020/12/12 03:36:33;;;;;;;7.72;6.40;;;;;;;6.59;79.09;96631.88;5092387;28;20044;-70
2020/12/12 03:38:59;;;;;;;6.78;6.05;;;;;;;6.61;79.56;96632.44;5091785;28;20118;-69
2020/12/12 03:41:26;;;;;;;8.32;6.75;;;;;;;6.67;79.17;96642.88;5092260;28;20044;-69
2020/12/12 03:43:53;;;;;;;9.35;6.93;;;;;;;6.72;79.22;96630.91;5090801;28;20052;-69
2020/12/12 03:46:19;;;;;;;10.40;6.18;;;;;;;6.70;78.60;96634.56;5092355;28;20044;-69
2020/12/12 03:48:47;;;;;;;8.05;6.75;;;;;;;6.69;79.04;96637.41;5092299;28;20448;-69
2020/12/12 03:51:14;;;;;;;7.80;6.90;;;;;;;6.70;78.87;96641.66;5092508;28;20044;-69
2020/12/12 03:53:40;;;;;;;8.15;7.05;;;;;;;6.66;78.43;96635.25;5091839;28;20048;-69
2020/12/12 03:56:07;;;;;;;7.95;6.82;;;;;;;6.61;78.74;96637.69;5091873;28;20101;-69
2020/12/12 03:58:33;;;;;;;8.77;6.57;;;;;;;6.63;78.81;96633.03;5091971;28;20043;-69
2020/12/12 04:01:00;;;;;;;8.20;7.20;;;;;;;6.63;78.70;96638.28;5091866;28;20052;-70
2020/12/12 04:03:27;;;;;;;7.35;6.57;;;;;;;6.64;78.95;96640.69;5091242;28;20044;-69
2020/12/12 04:05:54;;;;;;;9.30;7.15;;;;;;;6.62;78.69;96639.31;5090469;28;20048;-69
2020/12/12 04:08:21;;;;;;;6.80;6.10;;;;;;;6.60;78.85;96638.72;5091932;28;20044;-69
2020/12/12 04:10:50;;;;;;;7.40;6.55;;;;;;;6.61;78.98;96640.31;5090672;28;20515;-69
2020/12/12 04:13:16;;;;;;;8.25;7.35;;;;;;;6.64;78.92;96650.38;5091870;28;20040;-70
2020/12/12 04:15:43;;;;;;;10.73;7.15;;;;;;;6.65;78.58;96649.34;5090654;28;20097;-70
2020/12/12 04:18:10;;;;;;;7.00;6.30;;;;;;;6.68;78.93;96647.09;5090943;28;20051;-69
2020/12/12 04:20:37;;;;;;;9.05;6.90;;;;;;;6.73;78.92;96648.25;5090608;28;20505;-69
2020/12/12 04:23:04;;;;;;;13.20;8.23;;;;;;;6.72;78.81;96650.09;5091873;28;20047;-69
2020/12/12 04:25:31;;;;;;;10.52;8.30;;;;;;;6.68;78.49;96649.72;5091546;28;20055;-69
2020/12/12 04:27:57;;;;;;;8.73;7.68;;;;;;;6.62;78.77;96652.44;5091868;28;20051;-69
2020/12/12 04:30:24;;;;;;;10.10;7.18;;;;;;;6.59;79.01;96648.44;5091672;28;20413;-69
2020/12/12 04:32:51;;;;;;;10.93;8.20;;;;;;;6.59;78.99;96653.69;5091768;28;20387;-69
2020/12/12 04:35:17;;;;;;;9.32;7.68;;;;;;;6.60;78.88;96649.22;5091322;28;20070;-69
2020/12/12 04:37:44;;;;;;;9.15;7.80;;;;;;;6.57;78.87;96657.53;5091660;28;20043;-69
2020/12/12 04:40:12;;;;;;;9.70;8.18;;;;;;;6.57;79.46;96658.38;5090273;28;20412;-70
2020/12/12 04:42:42;;;;;;;12.75;8.38;;;;;;;6.58;79.28;96654.72;5091667;28;20059;-69
2020/12/12 04:45:10;;;;;;;11.70;8.70;;;;;;;6.61;79.33;96656.91;5091351;28;20058;-69
2020/12/12 04:47:38;;;;;;;9.25;7.63;;;;;;;6.58;79.58;96653.91;5091740;28;20512;-70
2020/12/12 04:50:05;;;;;;;9.05;7.45;;;;;;;6.60;79.28;96665.78;5090954;28;20135;-70
2020/12/12 04:52:31;;;;;;;8.35;7.45;;;;;;;6.63;79.70;96660.09;5096514;28;20509;-69
2020/12/12 04:55:05;;;;;;;10.38;7.95;;;;;;;6.69;79.44;96655.78;5102243;28;20038;-69
2020/12/12 04:57:34;;;;;;;9.63;8.45;;;;;;;6.75;79.12;96668.03;5119947;28;20032;-68
2020/12/12 05:00:01;;;;;;;9.98;8.90;;;;;;;6.73;78.86;96664.03;5120055;28;20039;-68
2020/12/12 05:02:28;;;;;;;10.10;8.77;;;;;;;6.70;78.75;96668.69;5108858;28;20047;-69
2020/12/12 05:04:55;;;;;;;11.05;8.00;;;;;;;6.66;79.38;96664.91;5096029;28;20153;-70
2020/12/12 05:07:22;;;;;;;9.75;8.20;;;;;;;6.66;79.33;96659.66;5095622;28;20386;-69
2020/12/12 05:09:48;;;;;;;9.63;7.32;;;;;;;6.68;79.54;96667.31;5095705;28;20040;-69
2020/12/12 05:12:15;;;;;;;10.20;8.23;;;;;;;6.73;79.31;96662.19;5095385;28;20486;-70
2020/12/12 05:14:48;;;;;;;8.90;7.80;;;;;;;6.74;78.89;96666.44;5094681;28;20055;-69
2020/12/12 05:17:15;;;;;;;9.27;6.93;;;;;;;6.66;78.77;96666.75;5094944;28;20044;-69
2020/12/12 05:19:42;;;;;;;8.90;7.28;;;;;;;6.64;78.84;96664.31;5094659;28;20044;-68
2020/12/12 05:22:10;;;;;;;8.88;7.35;;;;;;;6.63;79.00;96667.97;5094777;28;20044;-69
2020/12/12 05:24:38;;;;;;;8.05;6.63;;;;;;;6.69;79.06;96668.91;5094403;28;20059;-69
2020/12/12 05:27:05;;;;;;;7.57;6.55;;;;;;;6.72;78.95;96665.06;5093417;28;20067;-70
2020/12/12 05:29:32;;;;;;;7.18;6.22;;;;;;;6.67;78.51;96666.50;5094489;28;20405;-70
2020/12/12 05:31:59;;;;;;;6.85;5.95;;;;;;;6.67;78.96;96674.38;5094338;28;20055;-69
2020/12/12 05:34:27;;;;;;;6.45;5.75;;;;;;;6.76;78.68;96668.84;5094218;28;20051;-69
2020/12/12 05:36:56;;;;;;;6.30;5.53;;;;;;;6.72;78.72;96672.94;5093131;28;20058;-70
2020/12/12 05:39:23;;;;;;;6.72;5.10;;;;;;;6.76;78.69;96667.00;5094311;28;20043;-69
2020/12/12 05:41:50;;;;;;;8.07;6.22;;;;;;;6.81;78.73;96669.78;5094432;28;20068;-69
2020/12/12 05:44:17;;;;;;;6.88;5.30;;;;;;;6.85;78.61;96678.81;5094002;28;20044;-70
2020/12/12 05:46:45;;;;;;;6.30;5.70;;;;;;;6.91;77.95;96670.06;5094327;28;20048;-70
2020/12/12 05:49:15;;;;;;;6.70;6.00;;;;;;;6.81;77.73;96675.03;5094276;28;20417;-70
2020/12/12 05:51:41;;;;;;;6.85;5.80;;;;;;;6.76;78.15;96674.88;5092927;28;20105;-69
2020/12/12 05:54:08;;;;;;;6.07;5.47;;;;;;;6.73;77.94;96682.41;5093845;28;20504;-70
2020/12/12 05:56:35;;;;;;;6.85;6.15;;;;;;;6.69;78.72;96680.25;5092698;28;20401;-69
2020/12/12 05:59:02;;;;;;;6.65;6.00;;;;;;;6.69;78.31;96682.03;5093793;28;20046;-70
2020/12/12 06:01:30;;;;;;;6.57;5.85;;;;;;;6.75;78.92;96689.03;5093434;28;20039;-69
2020/12/12 06:04:03;;;;;;;6.07;5.47;;;;;;;6.77;78.64;96678.31;5093426;28;20501;-69
2020/12/12 06:06:31;;;;;;;8.68;6.80;;;;;;;6.76;78.12;96679.34;5093868;28;20056;-69
2020/12/12 06:09:05;;;;;;;7.07;5.88;;;;;;;6.67;78.23;96684.88;5092551;28;20047;-69
2020/12/12 06:11:33;;;;;;;7.32;5.82;;;;;;;6.67;78.76;96686.72;5093843;28;20047;-70
2020/12/12 06:14:02;;;;;;;7.10;5.85;;;;;;;6.74;78.65;96689.28;5093315;28;20494;-69
2020/12/12 06:16:31;;;;;;;6.65;5.00;;;;;;;6.76;78.67;96695.91;5093709;28;20055;-69
2020/12/12 06:19:07;;;;;;;7.00;5.97;;;;;;;6.80;78.41;96697.06;5092284;28;20173;-69
2020/12/12 06:21:37;;;;;;;7.30;5.57;;;;;;;6.77;78.26;96702.75;5092194;28;20080;-69
2020/12/12 06:24:06;;;;;;;6.70;5.30;;;;;;;6.76;78.51;96693.28;5092991;28;20059;-69
2020/12/12 06:26:53;;;;;;;7.05;5.13;;;;;;;6.83;78.43;96708.97;5093424;28;20051;-69
2020/12/12 06:29:21;;;;;;;5.82;5.22;;;;;;;6.85;78.30;96705.06;5093267;28;20111;-70
2020/12/12 06:31:54;;;;;;;6.00;5.40;;;;;;;6.82;78.26;96710.78;5092078;28;20051;-70
2020/12/12 06:34:42;;;;;;;7.32;5.20;;;;;;;6.85;78.48;96712.16;5092854;28;20071;-70
2020/12/12 06:40:03;;;;;;;7.03;5.70;;;;;;;6.82;78.18;96728.38;5110335;27;20373;-69
2020/12/12 06:42:35;;;;;;;6.13;5.53;;;;;;;6.79;77.95;96726.19;5108539;28;20056;-66
2020/12/12 06:45:24;;;;;;;5.60;5.03;;;;;;;6.76;78.63;96727.41;5109419;28;20051;-69
2020/12/12 06:47:53;;;;;;;6.05;4.80;;;;;;;6.79;78.66;96734.84;5109577;28;20051;-70
2020/12/12 06:50:21;;;;;;;5.68;5.13;;;;;;;6.82;78.54;96733.63;5109784;28;20036;-70
2020/12/12 06:52:49;;;;;;;5.05;4.55;;;;;;;6.85;78.40;96738.41;5109639;28;20515;-69
2020/12/12 06:55:19;;;;;;;7.40;6.70;;;;;;;6.92;78.36;96732.06;5109291;28;20040;-70
2020/12/12 06:57:47;;;;;;;15.25;12.00;;;;;;;6.94;77.66;96737.13;5109761;28;20493;-69
2020/12/12 07:00:21;;;;;;;8.02;7.22;;;;;;;6.86;77.90;96748.72;5108278;28;20417;-69
2020/12/12 07:02:59;;;;;;;7.63;5.95;;;;;;;6.88;77.99;96749.28;5109534;28;20051;-69
2020/12/12 07:05:29;;;;;;;6.43;4.90;;;;;;;6.87;78.14;96746.91;5107804;28;20051;-69
2020/12/12 07:08:01;;;;;;;5.07;4.60;;;;;;;6.90;78.00;96751.72;5109367;28;20493;-69
2020/12/12 07:10:29;;;;;;;8.65;5.25;;;;;;;6.92;77.83;96753.09;5109381;28;20404;-70
2020/12/12 07:12:57;;;;;;;6.35;5.40;;;;;;;6.89;78.21;96761.41;5109352;28;20044;-70
2020/12/12 07:15:27;;;;;;;5.38;4.88;;;;;;;6.92;78.28;96757.53;5108741;28;20052;-69
2020/12/12 07:17:54;;;;;;;5.82;5.20;;;;;;;6.99;78.29;96770.63;5108849;28;20073;-69
2020/12/12 07:20:21;;;;;;;6.53;5.03;;;;;;;7.06;78.33;96772.16;5109110;28;20482;-69
2020/12/12 07:22:48;;;;;;;20.05;16.73;;;;;;;7.10;77.79;96772.50;5107841;28;20043;-69
2020/12/12 07:25:14;;;;;;;13.20;11.88;;;;;;;7.18;77.84;96774.81;5108838;28;20044;-69
2020/12/12 07:27:42;;;;;;;5.63;5.13;;;;;;;7.17;77.38;96779.28;5108988;28;20043;-69
2020/12/12 07:30:09;;;;;;;9.27;7.50;;;;;;;7.16;77.14;96782.94;5107684;28;20047;-69
2020/12/12 07:32:36;;;;;;;5.13;4.63;;;;;;;7.15;77.26;96786.59;5108886;28;20401;-69
2020/12/12 07:35:03;;;;;;;6.25;5.13;;;;;;;7.19;77.22;96786.97;5108490;28;20044;-69
2020/12/12 07:37:32;;;;;;;5.05;4.50;;;;;;;7.16;77.10;96793.44;5108779;28;20443;-70
2020/12/12 07:39:58;;;;;;;5.50;4.30;;;;;;;7.15;77.22;96796.31;5108825;28;20051;-70
2020/12/12 07:42:33;;;;;;;5.32;4.82;;;;;;;7.13;77.07;96803.59;5108755;28;20062;-69
2020/12/12 07:45:09;;;;;;;5.47;4.78;;;;;;;7.12;77.21;96805.41;5108389;28;20489;-70
2020/12/12 07:47:36;;;;;;;5.13;4.63;;;;;;;7.15;77.41;96804.19;5108753;28;20059;-69
2020/12/12 07:50:05;;;;;;;4.97;3.95;;;;;;;7.17;77.13;96805.56;5102568;28;20050;-70
2020/12/12 07:52:32;;;;;;;4.82;4.35;;;;;;;7.17;77.15;96812.63;5093667;28;20036;-69
2020/12/12 07:55:03;;;;;;;4.90;4.13;;;;;;;7.23;77.17;96817.03;5094708;28;20409;-69
2020/12/12 07:57:30;;;;;;;5.90;4.90;;;;;;;7.25;77.18;96824.69;5094892;28;20040;-69
2020/12/12 08:00:09;;;;;;;6.22;5.63;;;;;;;7.15;77.49;96823.38;5094812;28;20036;-70
2020/12/12 08:02:40;;;;;;;8.15;7.18;;;;;;;7.11;77.63;96830.09;5094871;28;20050;-68
2020/12/12 08:05:08;;;;;;;7.90;5.95;;;;;;;7.13;77.89;96828.03;5094425;28;20522;-70
2020/12/12 08:07:35;;;;;;;8.43;6.28;;;;;;;7.12;78.17;96841.41;5094749;28;20061;-69
2020/12/12 08:10:05;;;;;;;7.05;6.35;;;;;;;7.15;78.05;96849.66;5093368;28;20048;-69
2020/12/12 08:12:33;;;;;;;7.32;6.15;;;;;;;7.17;78.18;96844.97;5094627;28;20055;-69
2020/12/12 08:15:13;;;;;;;7.43;6.70;;;;;;;7.23;78.13;96851.19;5092557;28;20044;-70
2020/12/12 08:17:40;;;;;;;11.05;9.95;;;;;;;7.27;78.51;96855.00;5094236;28;20051;-69
2020/12/12 08:20:13;;;;;;;7.00;6.30;;;;;;;7.30;78.02;96859.78;5093610;28;20566;-69
2020/12/12 08:22:40;;;;;;;10.50;7.68;;;;;;;7.33;78.23;96864.63;5094382;28;20059;-69
2020/12/12 08:25:10;;;;;;;10.13;7.03;;;;;;;7.36;78.18;96860.75;5094038;28;20063;-69
2020/12/12 08:27:38;;;;;;;8.65;7.75;;;;;;;7.39;78.15;96863.75;5094578;28;20040;-69
2020/12/12 08:30:07;;;;;;;16.58;13.52;;;;;;;7.44;77.91;96871.78;5093128;28;20048;-70
2020/12/12 08:32:37;;;;;;;21.50;16.77;;;;;;;7.36;77.66;96877.31;5092978;28;20054;-69
2020/12/12 08:35:18;;;;;;;9.65;6.88;;;;;;;7.27;77.80;96881.28;5093882;28;20513;-69
2020/12/12 08:37:57;;;;;;;7.82;6.65;;;;;;;7.23;78.20;96877.47;5097644;28;20051;-69
2020/12/12 08:40:28;;;;;;;6.57;5.88;;;;;;;7.19;78.17;96884.19;5093942;28;20047;-68
2020/12/12 08:43:00;;;;;;;7.25;5.63;;;;;;;7.11;78.59;96889.72;5094044;28;20044;-70
2020/12/12 08:45:28;;;;;;;7.78;6.85;;;;;;;7.01;78.61;96884.94;5093519;28;20081;-70
2020/12/12 08:48:07;;;;;;;8.38;6.47;;;;;;;7.08;78.82;96898.84;5092557;28;20138;-70
2020/12/12 08:50:48;;;;;;;7.10;6.40;;;;;;;7.11;78.97;96898.41;5094061;28;20058;-69
2020/12/12 08:53:24;;;;;;;6.53;5.70;;;;;;;7.18;79.32;96901.78;5095081;28;20044;-69
2020/12/12 08:56:05;;;;;;;5.72;5.07;;;;;;;7.26;78.88;96898.03;5094878;28;20036;-69
2020/12/12 08:58:39;;;;;;;7.40;6.55;;;;;;;7.31;78.86;96900.84;5094163;28;20036;-68
2020/12/12 09:01:24;;;;;;;;;;;;;;;7.35;79.22;96904.66;5092493;28;20052;-68
2020/12/12 09:03:56;;;;;;;12.10;8.07;;;;;;;7.39;78.55;96908.44;5093166;28;20370;-69
2020/12/12 09:06:25;;;;;;;5.80;5.20;;;;;;;7.43;79.01;96909.63;5093445;28;20509;-69
2020/12/12 09:09:07;;;;;;;6.38;5.70;;;;;;;7.53;78.71;96918.81;5092218;28;20055;-68
2020/12/12 09:11:34;;;;;;;8.27;6.15;;;;;;;7.58;78.42;96916.31;5093803;28;20044;-68
2020/12/12 09:14:02;;;;;;;7.88;6.18;;;;;;;7.53;78.46;96924.88;5093083;28;20041;-70
2020/12/12 09:16:28;;;;;;;7.55;6.75;;;;;;;7.54;78.34;96930.94;5093407;28;20516;-68
2020/12/12 09:18:57;;;;;;;7.90;7.05;;;;;;;7.58;78.38;96934.72;5093361;28;20490;-70
2020/12/12 09:21:24;;;;;;;10.77;7.53;;;;;;;7.57;78.47;96933.94;5093350;28;20047;-69
2020/12/12 09:23:51;;;;;;;8.73;7.75;;;;;;;7.62;78.58;96936.69;5093049;28;20054;-69
2020/12/12 09:26:19;;;;;;;8.52;7.28;;;;;;;7.65;78.09;96938.91;5093382;28;20093;-70
2020/12/12 09:28:46;;;;;;;8.15;7.10;;;;;;;7.63;78.17;96946.22;5093229;28;20044;-69
2020/12/12 09:31:14;;;;;;;9.60;7.28;;;;;;;7.64;78.21;96941.75;5105335;28;20062;-70
2020/12/12 09:33:42;;;;;;;8.32;6.40;;;;;;;7.62;78.56;96943.78;5109318;28;20024;-69
2020/12/12 09:36:10;;;;;;;9.18;8.25;;;;;;;7.63;78.43;96953.28;5103543;28;20063;-68
2020/12/12 09:38:41;;;;;;;10.25;8.00;;;;;;;7.65;78.20;96956.50;5092941;28;20047;-68
2020/12/12 09:41:08;;;;;;;8.45;7.18;;;;;;;7.64;78.24;96957.53;5092971;28;20051;-69
2020/12/12 09:43:36;;;;;;;9.82;7.82;;;;;;;7.63;78.42;96956.75;5092725;28;20063;-70
2020/12/12 09:46:03;;;;;;;7.40;6.50;;;;;;;7.68;78.53;96966.59;5091495;28;20047;-69
2020/12/12 09:48:30;;;;;;;5.97;5.38;;;;;;;7.64;78.14;96966.22;5092933;28;20111;-69
2020/12/12 09:50:56;;;;;;;6.32;5.50;;;;;;;7.62;78.15;96968.25;5091355;28;20047;-69
2020/12/12 09:53:24;;;;;;;6.03;5.43;;;;;;;7.58;78.33;96974.16;5092556;28;20093;-69
2020/12/12 09:55:52;;;;;;;6.00;5.20;;;;;;;7.52;78.66;96978.50;5092764;28;20044;-70
2020/12/12 09:58:19;;;;;;;8.48;6.93;;;;;;;7.60;78.67;96983.47;5092681;28;20044;-70
2020/12/12 10:00:46;;;;;;;7.18;5.78;;;;;;;7.64;78.27;96981.19;5092570;28;20059;-69
2020/12/12 10:03:13;;;;;;;7.85;6.75;;;;;;;7.72;78.65;96980.91;5091463;28;20068;-70
2020/12/12 10:05:40;;;;;;;9.38;6.78;;;;;;;7.76;78.33;96991.81;5092283;28;20105;-70
2020/12/12 10:08:06;;;;;;;12.55;9.75;;;;;;;7.78;78.25;96989.75;5092613;28;20061;-69
2020/12/12 10:10:34;;;;;;;8.55;7.15;;;;;;;7.84;78.80;96992.31;5091320;28;20058;-70
2020/12/12 10:13:01;;;;;;;8.77;7.25;;;;;;;7.89;78.58;96987.19;5090833;28;20055;-70
2020/12/12 10:15:28;;;;;;;8.95;5.82;;;;;;;7.89;78.63;96992.47;5092248;28;20409;-70
2020/12/12 10:17:55;;;;;;;7.82;6.75;;;;;;;7.99;78.36;96993.75;5090970;28;20040;-67
2020/12/12 10:20:23;;;;;;;7.75;5.85;;;;;;;8.08;78.34;96990.63;5090682;28;20044;-67
2020/12/12 10:22:50;;;;;;;9.00;7.13;;;;;;;8.15;78.14;96999.22;5092081;28;20043;-68
2020/12/12 10:25:17;;;;;;;7.40;6.68;;;;;;;8.21;78.23;96997.56;5091804;28;20417;-67
2020/12/12 10:27:45;;;;;;;7.07;6.38;;;;;;;8.20;77.99;96993.31;5092009;28;20054;-68
2020/12/12 10:30:13;;;;;;;7.32;6.32;;;;;;;8.21;77.75;96999.41;5090749;28;20051;-68
2020/12/12 10:32:40;;;;;;;7.90;6.13;;;;;;;8.17;77.69;96988.50;5092027;28;20048;-68
2020/12/12 10:35:10;;;;;;;10.43;6.75;;;;;;;8.23;78.05;96998.13;5090353;28;20048;-67
2020/12/12 10:37:37;;;;;;;7.22;6.03;;;;;;;8.28;78.25;97003.53;5091862;28;20047;-68
2020/12/12 10:40:11;;;;;;;9.32;7.88;;;;;;;8.32;77.82;97011.78;5091824;28;20114;-68
2020/12/12 10:42:41;;;;;;;9.05;7.65;;;;;;;8.34;77.88;97007.13;5091882;28;20385;-68
2020/12/12 10:45:09;;;;;;;9.13;7.78;;;;;;;8.35;77.71;97014.78;5091494;28;20048;-68
2020/12/12 10:47:36;;;;;;;11.50;9.25;;;;;;;8.35;77.96;97011.34;5091983;28;20059;-69
2020/12/12 10:50:04;;;;;;;10.82;8.98;;;;;;;8.34;77.81;97018.44;5091831;28;20047;-68
2020/12/12 10:52:36;;;;;;;11.55;9.48;;;;;;;8.33;78.11;97024.75;5091688;28;20048;-69
2020/12/12 10:55:04;;;;;;;8.57;7.68;;;;;;;8.36;78.08;97018.22;5091501;28;20052;-69
2020/12/12 10:57:31;;;;;;;9.43;7.10;;;;;;;8.35;77.66;97027.94;5091640;28;20055;-67
2020/12/12 10:59:59;;;;;;;7.95;6.53;;;;;;;8.35;77.97;97022.69;5091538;28;20052;-67
2020/12/12 11:02:29;;;;;;;7.72;6.72;;;;;;;8.39;77.87;97023.09;5091678;28;20069;-67
2020/12/12 11:04:56;;;;;;;8.02;7.22;;;;;;;8.40;77.52;97028.13;5091145;28;20440;-68
2020/12/12 11:07:23;;;;;;;9.30;7.32;;;;;;;8.41;77.67;97026.31;5091452;28;20057;-67
2020/12/12 11:09:49;;;;;;;9.95;8.02;;;;;;;8.40;77.99;97027.31;5091538;28;20451;-67
2020/12/12 11:12:16;;;;;;;12.35;10.10;;;;;;;8.47;77.97;97029.88;5091482;28;20051;-68
2020/12/12 11:14:46;;;;;;;9.13;7.47;;;;;;;8.47;77.85;97028.03;5091227;28;20043;-67
2020/12/12 11:17:13;;;;;;;6.88;6.18;;;;;;;8.44;77.45;97036.38;5091554;28;20379;-67
2020/12/12 11:19:40;;;;;;;7.03;6.32;;;;;;;8.43;77.62;97035.56;5091314;28;20048;-67
2020/12/12 11:22:07;;;;;;;9.07;7.03;;;;;;;8.44;77.83;97037.19;5091544;28;20490;-67
2020/12/12 11:24:34;;;;;;;10.13;6.93;;;;;;;8.44;77.58;97045.06;5091069;28;20044;-67
2020/12/12 11:27:01;;;;;;;8.23;7.07;;;;;;;8.42;77.88;97049.78;5093905;28;20052;-67
2020/12/12 11:29:28;;;;;;;9.45;6.55;;;;;;;8.42;77.95;97052.41;5095048;28;20054;-67
2020/12/12 11:31:54;;;;;;;7.97;7.05;;;;;;;8.41;77.79;97053.44;5095124;28;20382;-67
2020/12/12 11:34:26;;;;;;;8.60;6.78;;;;;;;8.41;77.75;97061.34;5094718;28;20036;-67
2020/12/12 11:37:19;;;;;;;9.13;6.70;;;;;;;8.34;77.94;97057.94;5094076;28;20041;-69
2020/12/12 11:39:54;;;;;;;10.15;7.10;;;;;;;8.24;77.60;97060.28;5093869;28;20048;-68
2020/12/12 11:47:50;;;;;;;9.73;7.68;;;;;;;8.27;78.22;97067.75;5095018;28;20048;-68
2020/12/12 11:50:17;;;;;;;8.23;6.68;;;;;;;8.30;78.12;97075.22;5095031;28;20055;-67
2020/12/12 11:52:46;;;;;;;6.82;6.13;;;;;;;8.34;77.90;97065.03;5094840;28;20089;-67
2020/12/12 11:55:16;;;;;;;10.35;6.28;;;;;;;8.19;77.96;97068.84;5094356;28;20055;-66